Time;durP1;ratioP1;P1;durP2;ratioP2;P2;SDS_P1;SDS_P2;PMS_P1;PMS_P2;Temp;Humidity;BMP_temperature;BMP_pressure;BME280_temperature;BME280_humidity;BME280_pressure;Samples;Min_cycle;Max_cycle;Signal;HPM_P1;HPM_P2
2022/07/28 00:02:04;;;;;;;9.47;5.27;;;16.70;38.00;;;;;;5069671;28;46430;-68
2022/07/28 00:04:31;;;;;;;8.63;5.30;;;16.70;38.90;;;;;;5068674;28;46217;-68
2022/07/28 00:06:56;;;;;;;9.40;5.20;;;16.70;39.00;;;;;;5068065;28;46458;-69
2022/07/28 00:09:22;;;;;;;10.30;5.67;;;16.60;40.50;;;;;;5069222;28;46420;-68
2022/07/28 00:11:48;;;;;;;9.43;5.40;;;16.50;38.50;;;;;;5068888;28;46433;-69
2022/07/28 00:14:13;;;;;;;8.37;6.00;;;16.50;39.60;;;;;;5069228;28;46353;-68
2022/07/28 00:16:39;;;;;;;9.37;5.53;;;16.50;39.80;;;;;;5069132;27;47074;-68
2022/07/28 00:19:05;;;;;;;7.40;5.43;;;16.40;39.80;;;;;;5069121;28;46426;-69
2022/07/28 00:21:30;;;;;;;8.23;5.63;;;16.40;39.90;;;;;;5068524;28;46312;-69
2022/07/28 00:23:56;;;;;;;9.73;5.90;;;16.40;40.10;;;;;;5070726;28;46441;-69
2022/07/28 00:26:22;;;;;;;10.03;6.03;;;16.30;40.10;;;;;;5068667;27;47030;-69
2022/07/28 00:28:48;;;;;;;8.30;5.60;;;16.30;40.30;;;;;;5070132;28;46535;-68
2022/07/28 00:31:13;;;;;;;11.83;5.33;;;16.30;39.20;;;;;;5069235;28;46361;-68
2022/07/28 00:33:39;;;;;;;7.20;5.53;;;16.30;40.30;;;;;;5069333;28;46366;-68
2022/07/28 00:36:07;;;;;;;8.40;5.70;;;16.30;40.50;;;;;;5068478;28;46454;-69
2022/07/28 00:38:33;;;;;;;10.43;5.30;;;16.20;40.90;;;;;;5067927;28;46438;-68
2022/07/28 00:41:11;;;;;;;10.43;5.87;;;16.00;41.20;;;;;;5070479;28;46507;-68
2022/07/28 00:43:41;;;;;;;8.40;5.87;;;15.90;40.70;;;;;;5068491;28;46501;-68
2022/07/28 00:46:07;;;;;;;9.33;6.10;;;15.80;42.10;;;;;;5067839;28;46807;-68
2022/07/28 00:48:36;;;;;;;9.80;6.43;;;15.70;42.30;;;;;;5067029;28;46434;-68
2022/07/28 00:51:02;;;;;;;9.00;5.63;;;15.70;42.90;;;;;;5069029;28;46415;-68
2022/07/28 00:53:28;;;;;;;8.57;6.40;;;15.60;43.30;;;;;;5067422;28;46411;-68
2022/07/28 00:55:54;;;;;;;9.13;6.47;;;15.60;43.60;;;;;;5067312;28;48314;-68
2022/07/28 00:58:20;;;;;;;9.60;6.37;;;15.60;43.50;;;;;;5067826;27;46393;-68
2022/07/28 01:00:45;;;;;;;8.80;6.10;;;15.40;43.40;;;;;;5064671;28;46607;-67
2022/07/28 01:03:11;;;;;;;10.60;6.30;;;15.50;42.40;;;;;;5066730;28;46664;-69
2022/07/28 01:06:01;;;;;;;9.30;6.30;;;15.50;43.50;;;;;;5067816;28;46387;-68
2022/07/28 01:08:36;;;;;;;9.00;6.10;;;15.50;43.70;;;;;;5066938;28;46521;-68
2022/07/28 01:11:10;;;;;;;10.20;7.33;;;15.50;43.50;;;;;;5068962;28;46400;-68
2022/07/28 01:13:49;;;;;;;15.53;7.20;;;15.40;42.30;;;;;;5068213;28;46450;-68
2022/07/28 01:16:15;;;;;;;8.87;7.10;;;15.40;44.10;;;;;;5068963;28;46908;-68
2022/07/28 01:18:53;;;;;;;9.83;6.70;;;15.30;44.40;;;;;;5068377;27;46489;-67
2022/07/28 01:21:27;;;;;;;9.93;7.23;;;15.30;43.70;;;;;;5066779;28;46416;-68
2022/07/28 01:24:08;;;;;;;10.03;7.30;;;15.30;44.80;;;;;;5072071;28;45909;-67
2022/07/28 01:27:04;;;;;;;11.00;7.90;;;15.20;45.10;;;;;;5080518;28;46037;-67
2022/07/28 01:29:36;;;;;;;8.83;6.80;;;15.20;45.70;;;;;;5061996;28;46390;-68
2022/07/28 01:32:08;;;;;;;13.30;8.07;;;15.30;45.20;;;;;;5070901;27;46884;-68
2022/07/28 01:34:47;;;;;;;9.53;7.63;;;15.30;45.50;;;;;;5070890;28;46385;-68
2022/07/28 01:37:18;;;;;;;12.30;7.37;;;15.30;45.70;;;;;;5070034;28;48162;-67
2022/07/28 01:39:45;;;;;;;11.53;6.77;;;15.30;45.50;;;;;;5072394;28;46469;-68
2022/07/28 01:42:13;;;;;;;10.60;7.40;;;15.40;45.70;;;;;;5072834;28;46465;-68
2022/07/28 01:44:43;;;;;;;10.10;7.90;;;15.40;45.60;;;;;;5071511;28;45870;-67
2022/07/28 01:47:10;;;;;;;15.23;6.60;;;15.40;45.60;;;;;;5069858;28;47947;-68
2022/07/28 01:49:37;;;;;;;11.50;7.90;;;15.40;45.80;;;;;;5071720;28;46471;-66
2022/07/28 01:52:07;;;;;;;10.90;7.63;;;15.40;45.30;;;;;;5071624;28;46460;-68
2022/07/28 01:54:36;;;;;;;12.60;7.27;;;15.40;46.10;;;;;;5069678;28;46368;-68
2022/07/28 01:57:04;;;;;;;17.30;8.30;;;15.30;46.60;;;;;;5069926;28;46716;-67
2022/07/28 01:59:31;;;;;;;13.83;8.07;;;15.30;46.80;;;;;;5071326;28;45930;-67
2022/07/28 02:01:59;;;;;;;11.10;7.70;;;15.20;47.20;;;;;;5070481;28;46493;-67
2022/07/28 02:04:26;;;;;;;20.00;8.10;;;15.20;47.30;;;;;;5068843;28;46581;-67
2022/07/28 02:06:54;;;;;;;10.43;7.40;;;15.20;47.80;;;;;;5069487;28;47175;-67
2022/07/28 02:09:21;;;;;;;10.20;7.77;;;15.10;48.00;;;;;;5069620;28;46481;-67
2022/07/28 02:11:50;;;;;;;13.70;9.00;;;15.10;47.50;;;;;;5071162;28;46400;-68
2022/07/28 02:14:20;;;;;;;12.53;7.47;;;15.10;48.40;;;;;;5070538;28;46372;-67
2022/07/28 02:16:51;;;;;;;8.93;7.60;;;15.10;49.00;;;;;;5069360;28;46349;-68
2022/07/28 02:19:18;;;;;;;13.80;7.50;;;15.10;48.90;;;;;;5069864;28;46486;-68
2022/07/28 02:21:46;;;;;;;10.03;7.90;;;15.10;48.80;;;;;;5068924;28;46457;-68
2022/07/28 02:24:13;;;;;;;9.83;7.40;;;15.10;49.10;;;;;;5071618;28;46698;-67
2022/07/28 02:26:45;;;;;;;16.30;7.67;;;15.10;49.10;;;;;;5068920;28;46416;-67
2022/07/28 02:29:12;;;;;;;12.03;7.83;;;15.10;50.40;;;;;;5069342;28;46390;-67
2022/07/28 02:31:53;;;;;;;18.97;8.50;;;15.10;48.00;;;;;;5069906;28;46409;-67
2022/07/28 02:34:23;;;;;;;13.40;8.27;;;15.10;49.20;;;;;;5069482;28;46498;-67
2022/07/28 02:37:01;;;;;;;15.00;8.43;;;15.10;48.90;;;;;;5069907;28;46573;-67
2022/07/28 02:39:50;;;;;;;11.70;7.63;;;15.10;49.00;;;;;;5070841;28;46457;-67
2022/07/28 02:42:19;;;;;;;11.10;8.70;;;15.10;49.10;;;;;;5060906;28;46448;-67
2022/07/28 02:44:54;;;;;;;11.83;7.80;;;15.10;48.80;;;;;;5070139;28;45974;-67
2022/07/28 02:47:23;;;;;;;14.30;7.77;;;15.10;48.90;;;;;;5070675;28;46376;-67
2022/07/28 02:49:51;;;;;;;12.97;8.13;;;15.00;49.10;;;;;;5068248;28;46611;-68
2022/07/28 02:52:21;;;;;;;14.57;9.07;;;14.90;49.30;;;;;;5070654;28;46436;-68
2022/07/28 02:54:49;;;;;;;15.13;8.40;;;14.90;49.40;;;;;;5069178;28;46438;-67
2022/07/28 02:57:17;;;;;;;11.33;8.23;;;14.90;49.40;;;;;;5069244;28;47080;-68
2022/07/28 02:59:44;;;;;;;12.23;7.10;;;14.90;49.40;;;;;;5069307;28;46419;-68
2022/07/28 03:02:10;;;;;;;9.77;7.60;;;14.90;48.70;;;;;;5070724;28;46600;-67
2022/07/28 03:04:57;;;;;;;11.23;7.77;;;14.90;49.70;;;;;;5071098;28;46718;-68
2022/07/28 03:07:30;;;;;;;10.77;7.73;;;14.80;49.60;;;;;;5070301;28;47035;-66
2022/07/28 03:09:57;;;;;;;10.47;7.10;;;14.80;49.90;;;;;;5069571;28;46795;-67
2022/07/28 03:12:23;;;;;;;10.10;7.30;;;14.70;49.30;;;;;;5068370;28;46497;-67
2022/07/28 03:14:48;;;;;;;12.50;8.63;;;14.70;50.10;;;;;;5070080;28;46375;-68
2022/07/28 03:17:14;;;;;;;11.37;8.17;;;14.60;50.30;;;;;;5069295;28;45939;-67
2022/07/28 03:19:40;;;;;;;12.80;8.60;;;14.60;50.50;;;;;;5070954;27;45804;-68
2022/07/28 03:22:07;;;;;;;11.60;7.93;;;14.50;50.50;;;;;;5069812;28;46462;-67
2022/07/28 03:24:36;;;;;;;12.00;7.47;;;14.50;50.70;;;;;;5070607;28;46454;-68
2022/07/28 03:27:20;;;;;;;10.57;7.13;;;14.40;50.70;;;;;;5069393;28;47141;-67
2022/07/28 03:29:51;;;;;;;11.17;7.20;;;14.40;51.00;;;;;;5069796;28;46454;-68
2022/07/28 03:32:19;;;;;;;10.97;8.40;;;14.40;50.00;;;;;;5069364;28;46488;-68
2022/07/28 03:34:45;;;;;;;9.17;7.70;;;14.70;51.20;;;;;;5069527;28;46471;-68
2022/07/28 03:37:14;;;;;;;11.47;6.60;;;14.30;51.00;;;;;;5068688;28;47182;-68
2022/07/28 03:39:46;;;;;;;12.47;8.10;;;14.30;51.10;;;;;;5068652;28;45771;-67
2022/07/28 03:42:17;;;;;;;14.47;7.27;;;14.20;51.20;;;;;;5069943;28;46625;-68
2022/07/28 03:44:46;;;;;;;10.80;7.83;;;14.20;51.10;;;;;;5069341;28;46374;-68
2022/07/28 03:47:13;;;;;;;9.70;7.93;;;14.20;51.10;;;;;;5068220;28;46450;-67
2022/07/28 03:49:39;;;;;;;13.40;7.60;;;14.20;51.10;;;;;;5070817;28;46521;-68
2022/07/28 03:52:05;;;;;;;11.10;7.77;;;14.30;50.20;;;;;;5069549;28;46421;-69
2022/07/28 03:54:30;;;;;;;11.80;7.27;;;14.30;51.10;;;;;;5070722;27;45847;-67
2022/07/28 03:56:56;;;;;;;11.60;8.13;;;14.30;51.20;;;;;;5070192;28;47156;-67
2022/07/28 03:59:22;;;;;;;10.60;7.97;;;14.30;51.10;;;;;;5070587;27;46364;-67
2022/07/28 04:01:48;;;;;;;14.10;8.07;;;14.40;50.20;;;;;;5069337;28;46340;-67
2022/07/28 04:04:13;;;;;;;12.83;8.60;;;14.40;51.10;;;;;;5070373;28;46368;-67
2022/07/28 04:06:39;;;;;;;11.57;8.93;;;14.40;51.00;;;;;;5069025;28;46333;-67
2022/07/28 04:09:05;;;;;;;15.13;8.20;;;14.40;51.00;;;;;;5069330;28;46710;-67
2022/07/28 04:11:30;;;;;;;13.23;10.17;;;14.50;51.00;;;;;;5073799;28;46421;-68
2022/07/28 04:13:56;;;;;;;13.83;8.40;;;14.60;51.00;;;;;;5072477;28;45903;-67
2022/07/28 04:16:22;;;;;;;12.43;10.20;;;14.60;51.00;;;;;;5068339;28;47617;-66
2022/07/28 04:18:47;;;;;;;14.83;10.47;;;14.60;50.90;;;;;;5068218;28;46403;-68
2022/07/28 04:21:13;;;;;;;16.37;10.10;;;14.70;50.00;;;;;;5069436;28;46478;-68
2022/07/28 04:23:39;;;;;;;20.60;11.40;;;14.70;51.10;;;;;;5067949;28;46509;-68
2022/07/28 04:26:05;;;;;;;13.80;11.00;;;14.80;51.00;;;;;;5069254;28;46519;-67
2022/07/28 04:28:30;;;;;;;14.87;9.70;;;14.90;50.80;;;;;;5068741;28;46585;-68
2022/07/28 04:30:56;;;;;;;14.60;8.97;;;15.00;50.80;;;;;;5069458;28;46470;-67
2022/07/28 04:33:21;;;;;;;11.57;9.10;;;15.10;50.60;;;;;;5067017;28;46366;-67
2022/07/28 04:35:47;;;;;;;12.70;10.70;;;15.10;50.50;;;;;;5068933;28;46930;-68
2022/07/28 04:38:13;;;;;;;17.27;8.93;;;15.20;50.50;;;;;;5066786;27;46383;-68
2022/07/28 04:40:40;;;;;;;16.97;10.40;;;15.30;50.50;;;;;;5069192;28;46309;-67
2022/07/28 04:43:06;;;;;;;20.63;11.57;;;15.40;50.70;;;;;;5067679;28;46389;-68
2022/07/28 04:45:32;;;;;;;15.43;11.00;;;15.30;50.80;;;;;;5068883;28;47239;-67
2022/07/28 04:47:58;;;;;;;14.43;10.63;;;15.40;50.80;;;;;;5068016;27;46464;-67
2022/07/28 04:50:24;;;;;;;13.37;10.10;;;15.60;50.60;;;;;;5066577;28;46475;-67
2022/07/28 04:52:49;;;;;;;18.57;11.20;;;15.80;50.40;;;;;;5067968;28;46381;-68
2022/07/28 04:55:16;;;;;;;17.10;12.17;;;15.80;50.40;;;;;;5069545;28;48160;-68
2022/07/28 04:57:42;;;;;;;18.70;11.03;;;15.90;50.60;;;;;;5068623;28;46489;-68
2022/07/28 05:00:11;;;;;;;15.90;10.93;;;16.00;50.50;;;;;;5069838;27;46366;-68
2022/07/28 05:02:38;;;;;;;10.07;8.93;;;16.80;50.90;;;;;;5067849;28;46455;-68
2022/07/28 05:05:04;;;;;;;12.43;8.03;;;18.10;49.00;;;;;;5069319;28;46668;-68
2022/07/28 05:07:30;;;;;;;14.23;7.60;;;19.20;46.40;;;;;;5068873;28;46451;-68
2022/07/28 05:09:55;;;;;;;16.53;8.40;;;20.20;43.40;;;;;;5068667;28;46485;-68
2022/07/28 05:12:21;;;;;;;13.90;8.20;;;20.70;41.80;;;;;;5070200;28;46465;-68
2022/07/28 05:14:47;;;;;;;12.60;7.83;;;21.10;40.20;;;;;;5069665;28;47167;-69
2022/07/28 05:17:12;;;;;;;11.90;7.83;;;21.70;37.30;;;;;;5067273;28;46399;-67
2022/07/28 05:19:38;;;;;;;10.50;8.37;;;21.90;36.80;;;;;;5069475;28;46456;-66
2022/07/28 05:22:03;;;;;;;10.40;7.83;;;22.30;36.00;;;;;;5067788;28;46468;-69
2022/07/28 05:24:29;;;;;;;9.00;7.60;;;22.60;33.90;;;;;;5066541;28;46410;-69
2022/07/28 05:26:55;;;;;;;11.97;8.30;;;22.50;34.10;;;;;;5066768;28;46427;-69
2022/07/28 05:29:20;;;;;;;14.40;7.80;;;22.60;33.80;;;;;;5066441;28;46587;-69
2022/07/28 05:31:46;;;;;;;11.50;7.73;;;22.80;32.20;;;;;;5068660;28;46689;-69
2022/07/28 05:34:11;;;;;;;11.50;7.43;;;22.90;31.50;;;;;;5068702;28;47157;-69
2022/07/28 05:36:37;;;;;;;12.87;7.40;;;23.00;30.10;;;;;;5067137;28;46434;-69
2022/07/28 05:39:03;;;;;;;14.40;8.03;;;23.20;30.20;;;;;;5068242;28;46475;-68
2022/07/28 05:41:28;;;;;;;11.33;8.00;;;23.70;28.00;;;;;;5068063;28;46443;-67
2022/07/28 05:43:54;;;;;;;12.57;7.50;;;23.70;28.30;;;;;;5067331;28;46889;-71
2022/07/28 05:46:19;;;;;;;17.23;8.57;;;24.00;27.20;;;;;;5067586;28;46449;-69
2022/07/28 05:48:45;;;;;;;11.23;8.30;;;24.30;25.50;;;;;;5067746;28;46420;-69
2022/07/28 05:51:10;;;;;;;10.40;7.23;;;23.90;25.40;;;;;;5067738;28;46527;-71
2022/07/28 05:53:36;;;;;;;14.60;8.17;;;23.90;26.20;;;;;;5068262;28;48297;-69
2022/07/28 05:56:02;;;;;;;12.13;7.40;;;23.80;26.30;;;;;;5068233;28;46387;-70
2022/07/28 05:58:29;;;;;;;11.43;8.03;;;23.50;27.10;;;;;;5068180;28;45927;-70
2022/07/28 06:00:58;;;;;;;10.80;7.90;;;23.50;27.60;;;;;;5067451;27;46465;-70
2022/07/28 06:03:24;;;;;;;12.43;7.40;;;23.40;26.80;;;;;;5065907;28;47282;-69
2022/07/28 06:05:55;;;;;;;10.77;7.63;;;23.10;27.40;;;;;;5067671;28;46400;-68
2022/07/28 06:08:21;;;;;;;12.57;7.83;;;23.40;26.50;;;;;;5063983;28;46396;-67
2022/07/28 06:11:00;;;;;;;12.13;7.50;;;22.90;27.90;;;;;;5068274;28;46674;-67
2022/07/28 06:13:27;;;;;;;11.30;7.60;;;23.10;27.70;;;;;;5070422;28;46429;-66
2022/07/28 06:15:52;;;;;;;8.57;6.83;;;23.50;26.90;;;;;;5070948;28;46010;-67
2022/07/28 06:18:21;;;;;;;9.00;7.40;;;23.80;25.60;;;;;;5070423;28;45859;-69
2022/07/28 06:20:47;;;;;;;10.67;7.07;;;24.10;25.20;;;;;;5070301;28;46687;-66
2022/07/28 06:23:17;;;;;;;13.23;6.50;;;24.40;24.10;;;;;;5070394;28;47110;-69
2022/07/28 06:25:42;;;;;;;9.63;6.83;;;24.20;25.40;;;;;;5069376;28;46437;-70
2022/07/28 06:28:08;;;;;;;12.20;7.90;;;23.10;28.00;;;;;;5068401;28;46713;-67
2022/07/28 06:30:33;;;;;;;11.50;7.20;;;22.30;30.00;;;;;;5070254;28;46388;-67
2022/07/28 06:32:59;;;;;;;10.70;7.60;;;21.90;31.60;;;;;;5069650;28;46999;-68
2022/07/28 06:35:25;;;;;;;10.20;8.00;;;21.70;31.80;;;;;;5067639;28;46436;-68
2022/07/28 06:37:51;;;;;;;12.57;7.63;;;22.30;29.00;;;;;;5070534;28;46732;-67
2022/07/28 06:40:18;;;;;;;19.13;7.80;;;22.50;28.20;;;;;;5068956;27;46423;-67
2022/07/28 06:42:45;;;;;;;17.73;7.47;;;22.10;29.20;;;;;;5068831;28;46432;-67
2022/07/28 06:45:14;;;;;;;15.30;8.87;;;21.80;30.50;;;;;;5070964;28;46424;-67
2022/07/28 06:47:39;;;;;;;11.60;7.90;;;21.60;31.90;;;;;;5071264;28;46561;-67
2022/07/28 06:50:06;;;;;;;13.53;7.47;;;21.30;32.80;;;;;;5070420;28;46439;-66
2022/07/28 06:52:33;;;;;;;9.83;7.27;;;21.40;33.70;;;;;;5069596;28;46542;-65
2022/07/28 06:54:59;;;;;;;7.93;6.90;;;21.30;34.50;;;;;;5069849;28;46415;-67
2022/07/28 06:57:26;;;;;;;9.67;6.93;;;21.30;34.70;;;;;;5069748;28;46353;-67
2022/07/28 06:59:52;;;;;;;10.63;6.80;;;21.40;34.50;;;;;;5077211;28;46758;-67
2022/07/28 07:02:17;;;;;;;12.30;7.20;;;21.50;34.50;;;;;;5069641;28;46402;-67
2022/07/28 07:04:43;;;;;;;12.93;7.20;;;21.60;34.00;;;;;;5069548;28;46489;-67
2022/07/28 07:07:09;;;;;;;11.70;7.47;;;21.60;33.60;;;;;;5069436;28;46741;-67
2022/07/28 07:09:35;;;;;;;14.10;7.77;;;21.60;33.60;;;;;;5068178;28;46382;-67
2022/07/28 07:12:01;;;;;;;11.20;6.97;;;21.60;33.00;;;;;;5069759;28;47183;-66
2022/07/28 07:14:26;;;;;;;15.27;7.67;;;21.90;32.20;;;;;;5069824;28;46527;-67
2022/07/28 07:16:53;;;;;;;14.27;8.20;;;21.70;33.30;;;;;;5069208;28;46419;-68
2022/07/28 07:19:19;;;;;;;18.70;8.70;;;21.70;32.00;;;;;;5077017;28;46250;-66
2022/07/28 07:21:46;;;;;;;12.60;7.90;;;21.70;31.60;;;;;;5072951;28;46465;-67
2022/07/28 07:24:12;;;;;;;13.90;7.77;;;21.50;32.20;;;;;;5071324;28;46492;-67
2022/07/28 07:26:38;;;;;;;15.43;7.53;;;21.70;32.20;;;;;;5071222;28;46447;-67
2022/07/28 07:29:05;;;;;;;13.17;9.27;;;21.90;31.60;;;;;;5069905;28;46701;-66
2022/07/28 07:31:32;;;;;;;11.13;7.40;;;21.80;30.50;;;;;;5068925;28;46832;-69
2022/07/28 07:33:57;;;;;;;13.47;7.53;;;21.80;31.70;;;;;;5069914;28;46688;-67
2022/07/28 07:36:23;;;;;;;14.73;7.63;;;22.00;31.30;;;;;;5069322;27;45950;-67
2022/07/28 07:38:48;;;;;;;17.43;7.80;;;22.20;30.90;;;;;;5067595;28;46060;-66
2022/07/28 07:41:14;;;;;;;12.17;7.80;;;22.10;30.30;;;;;;5069692;28;45931;-67
2022/07/28 07:43:40;;;;;;;14.47;8.27;;;22.00;31.40;;;;;;5068620;28;46428;-68
2022/07/28 07:46:07;;;;;;;10.60;7.13;;;22.00;31.50;;;;;;5069519;28;46582;-68
2022/07/28 07:48:32;;;;;;;9.70;7.20;;;22.10;31.50;;;;;;5068982;28;46475;-66
2022/07/28 07:50:58;;;;;;;9.47;6.47;;;22.30;31.40;;;;;;5067445;28;46416;-66
2022/07/28 07:53:23;;;;;;;12.63;8.00;;;22.50;31.20;;;;;;5068973;28;46358;-67
2022/07/28 07:55:50;;;;;;;14.27;7.77;;;22.70;30.70;;;;;;5070007;28;46663;-67
2022/07/28 07:58:15;;;;;;;10.40;6.93;;;22.60;30.80;;;;;;5068461;28;46509;-67
2022/07/28 08:00:41;;;;;;;11.43;7.20;;;22.50;31.00;;;;;;5067777;28;46446;-68
2022/07/28 08:03:06;;;;;;;9.13;6.97;;;22.60;31.10;;;;;;5068091;27;46386;-68
2022/07/28 08:05:32;;;;;;;9.90;6.90;;;22.60;30.90;;;;;;5066241;28;46424;-67
2022/07/28 08:07:58;;;;;;;11.40;7.27;;;22.50;31.20;;;;;;5067454;28;45914;-66
2022/07/28 08:10:23;;;;;;;12.10;7.10;;;22.60;31.10;;;;;;5068277;28;46469;-69
2022/07/28 08:12:49;;;;;;;12.33;7.60;;;22.60;31.10;;;;;;5067194;28;46444;-69
2022/07/28 08:15:14;;;;;;;12.00;7.10;;;22.70;30.70;;;;;;5068902;28;46453;-70
2022/07/28 08:17:40;;;;;;;11.70;7.47;;;22.60;30.90;;;;;;5068371;28;46658;-68
2022/07/28 08:20:06;;;;;;;10.23;6.33;;;22.80;31.00;;;;;;5069260;28;46455;-68
2022/07/28 08:22:32;;;;;;;10.40;6.00;;;23.00;30.50;;;;;;5069917;28;45940;-68
2022/07/28 08:25:00;;;;;;;12.67;8.07;;;23.30;30.00;;;;;;5067029;28;46374;-69
2022/07/28 08:27:26;;;;;;;8.80;7.00;;;23.10;29.90;;;;;;5066232;28;46617;-67
2022/07/28 08:29:52;;;;;;;11.73;6.77;;;23.20;29.90;;;;;;5068501;28;46598;-68
2022/07/28 08:32:18;;;;;;;15.93;7.00;;;23.00;30.00;;;;;;5067666;28;46483;-69
2022/07/28 08:34:43;;;;;;;10.20;6.93;;;23.00;30.30;;;;;;5069719;28;45941;-67
2022/07/28 08:37:09;;;;;;;12.20;7.50;;;23.30;30.00;;;;;;5067471;28;46487;-67
2022/07/28 08:39:35;;;;;;;12.87;6.73;;;23.30;29.60;;;;;;5067130;28;46457;-70
2022/07/28 08:42:10;;;;;;;11.70;7.17;;;23.20;29.70;;;;;;5069046;28;46427;-68
2022/07/28 08:44:51;;;;;;;10.13;6.40;;;23.20;29.60;;;;;;5068185;28;46530;-70
2022/07/28 08:47:18;;;;;;;12.33;6.20;;;23.30;29.60;;;;;;5066370;28;46648;-69
2022/07/28 08:49:47;;;;;;;9.93;6.83;;;23.50;29.20;;;;;;5068728;28;47323;-71
2022/07/28 08:52:13;;;;;;;12.50;6.07;;;23.50;28.80;;;;;;5065860;28;46367;-69
2022/07/28 08:54:42;;;;;;;10.67;5.93;;;23.50;29.00;;;;;;5066486;27;46520;-70
2022/07/28 08:57:11;;;;;;;9.53;5.87;;;23.60;28.70;;;;;;5068700;28;46408;-69
2022/07/28 08:59:38;;;;;;;10.80;5.57;;;23.80;28.50;;;;;;5069140;28;46385;-66
2022/07/28 09:02:03;;;;;;;17.00;6.57;;;23.80;28.00;;;;;;5066878;27;46660;-69
2022/07/28 09:04:32;;;;;;;11.97;6.03;;;23.80;27.90;;;;;;5067495;27;45966;-68
2022/07/28 09:06:58;;;;;;;12.47;6.13;;;23.90;27.90;;;;;;5067672;28;46503;-68
2022/07/28 09:09:25;;;;;;;8.80;6.77;;;23.80;27.40;;;;;;5066769;28;47099;-71
2022/07/28 09:11:51;;;;;;;9.80;5.47;;;23.90;27.30;;;;;;5068143;28;46500;-67
2022/07/28 09:14:16;;;;;;;10.87;5.10;;;24.00;26.90;;;;;;5068548;28;46428;-67
2022/07/28 09:16:43;;;;;;;15.57;6.53;;;24.00;27.10;;;;;;5066851;28;46466;-69
2022/07/28 09:19:08;;;;;;;10.33;5.70;;;24.20;26.50;;;;;;5068091;28;46326;-69
2022/07/28 09:21:35;;;;;;;10.70;5.83;;;24.20;26.10;;;;;;5065544;28;46624;-69
2022/07/28 09:24:00;;;;;;;14.30;6.13;;;24.50;25.60;;;;;;5068306;28;46834;-69
2022/07/28 09:26:26;;;;;;;9.30;5.57;;;24.40;25.50;;;;;;5068549;28;46558;-69
2022/07/28 09:28:56;;;;;;;9.33;5.50;;;24.60;25.70;;;;;;5066667;28;49028;-68
2022/07/28 09:31:25;;;;;;;8.20;5.73;;;24.50;23.90;;;;;;5066282;28;47053;-70
2022/07/28 09:33:59;;;;;;;8.97;5.67;;;24.50;25.40;;;;;;5066873;28;46407;-70
2022/07/28 09:36:26;;;;;;;10.03;5.90;;;24.70;25.10;;;;;;5068711;27;46415;-69
2022/07/28 09:38:53;;;;;;;7.90;5.63;;;24.80;24.90;;;;;;5069030;28;46656;-69
2022/07/28 09:41:22;;;;;;;15.87;5.10;;;24.80;24.30;;;;;;5067641;28;46378;-69
2022/07/28 09:43:50;;;;;;;10.73;5.50;;;24.80;25.10;;;;;;5067117;28;45855;-70
2022/07/28 09:46:20;;;;;;;7.40;5.33;;;24.70;24.80;;;;;;5071897;28;46439;-70
2022/07/28 09:48:49;;;;;;;14.80;5.97;;;24.80;24.50;;;;;;5069862;28;46440;-69
2022/07/28 09:51:21;;;;;;;10.03;4.60;;;25.00;23.90;;;;;;5069800;28;46692;-65
2022/07/28 09:53:47;;;;;;;12.60;5.30;;;25.00;23.60;;;;;;5069977;28;46459;-68
2022/07/28 09:56:13;;;;;;;12.80;5.47;;;25.00;23.60;;;;;;5070723;28;46595;-72
2022/07/28 09:58:40;;;;;;;8.00;5.10;;;25.10;23.70;;;;;;5069247;28;46467;-70
2022/07/28 10:01:14;;;;;;;16.10;5.43;;;25.00;23.10;;;;;;5069873;28;46648;-69
2022/07/28 10:03:41;;;;;;;9.97;5.30;;;24.90;23.20;;;;;;5070349;28;46385;-70
2022/07/28 10:06:14;;;;;;;10.93;5.40;;;24.90;23.40;;;;;;5072097;28;46012;-69
2022/07/28 10:08:44;;;;;;;11.53;4.83;;;25.20;23.50;;;;;;5068229;28;46465;-71
2022/07/28 10:11:12;;;;;;;10.07;5.20;;;25.20;23.10;;;;;;5072559;27;46519;-70
2022/07/28 10:14:01;;;;;;;7.87;4.83;;;25.30;22.50;;;;;;5071611;28;46420;-70
2022/07/28 10:16:35;;;;;;;7.77;5.10;;;25.40;22.50;;;;;;5074079;28;46356;-71
2022/07/28 10:19:04;;;;;;;8.80;5.10;;;25.50;22.20;;;;;;5072236;28;48338;-70
2022/07/28 10:21:38;;;;;;;7.70;4.67;;;25.40;21.20;;;;;;5071523;28;46494;-70
2022/07/28 10:24:05;;;;;;;10.67;4.77;;;25.40;22.00;;;;;;5070675;28;46493;-70
2022/07/28 10:26:36;;;;;;;11.27;4.50;;;25.40;21.30;;;;;;5070211;28;46797;-69
2022/07/28 10:29:10;;;;;;;8.10;4.13;;;25.50;21.40;;;;;;5066548;28;45984;-69
2022/07/28 10:31:53;;;;;;;5.37;3.77;;;25.50;21.30;;;;;;5066759;28;46387;-67
2022/07/28 10:34:29;;;;;;;6.53;4.00;;;25.50;20.90;;;;;;5068407;28;46483;-68
2022/07/28 10:36:57;;;;;;;8.60;4.33;;;25.60;21.00;;;;;;5068742;28;46393;-68
2022/07/28 10:39:27;;;;;;;7.80;3.40;;;25.80;20.90;;;;;;5070634;28;46403;-67
2022/07/28 10:41:54;;;;;;;9.03;4.40;;;26.00;20.90;;;;;;5070243;28;46754;-68
2022/07/28 10:44:21;;;;;;;7.70;4.07;;;25.90;20.00;;;;;;5071779;28;45885;-67
2022/07/28 10:46:48;;;;;;;10.90;4.20;;;25.90;20.20;;;;;;5072930;28;46362;-68
2022/07/28 10:49:14;;;;;;;5.53;3.50;;;26.20;19.90;;;;;;5070316;28;46480;-68
2022/07/28 10:51:43;;;;;;;9.00;3.83;;;26.30;19.40;;;;;;5068823;28;46471;-71
2022/07/28 10:54:28;;;;;;;11.17;3.53;;;26.40;19.50;;;;;;5071729;27;46350;-68
2022/07/28 10:57:00;;;;;;;6.13;3.57;;;26.30;18.70;;;;;;5069179;28;46616;-68
2022/07/28 10:59:37;;;;;;;9.00;3.30;;;26.10;18.40;;;;;;5067554;28;46421;-66
2022/07/28 11:02:03;;;;;;;8.50;3.30;;;25.90;17.60;;;;;;5070059;28;45798;-69
2022/07/28 11:04:45;;;;;;;7.93;3.70;;;26.00;18.50;;;;;;5069750;28;46592;-68
2022/07/28 11:07:13;;;;;;;11.83;3.23;;;26.00;18.40;;;;;;5068836;28;46921;-69
2022/07/28 11:09:39;;;;;;;6.97;3.60;;;26.00;17.60;;;;;;5069362;28;46913;-67
2022/07/28 11:12:05;;;;;;;8.80;3.70;;;26.00;17.70;;;;;;5069643;27;46405;-68
2022/07/28 11:14:35;;;;;;;4.80;3.00;;;26.00;18.10;;;;;;5064995;28;46436;-69
2022/07/28 11:17:03;;;;;;;6.23;4.10;;;26.10;18.30;;;;;;5069385;28;46590;-70
2022/07/28 11:19:51;;;;;;;5.77;3.20;;;26.20;18.10;;;;;;5068861;28;47012;-67
2022/07/28 11:22:17;;;;;;;9.87;3.20;;;26.60;17.80;;;;;;5068977;28;46096;-66
2022/07/28 11:25:01;;;;;;;12.03;3.40;;;26.60;16.80;;;;;;5069735;28;46411;-65
2022/07/28 11:27:41;;;;;;;6.53;3.20;;;26.50;16.70;;;;;;5068335;28;46384;-66
2022/07/28 11:30:31;;;;;;;6.20;3.27;;;26.60;17.00;;;;;;5068077;28;46812;-65
2022/07/28 11:32:57;;;;;;;6.90;3.23;;;26.50;16.70;;;;;;5066118;28;46815;-65
2022/07/28 11:35:24;;;;;;;10.17;3.17;;;26.40;17.10;;;;;;5068847;28;45899;-65
2022/07/28 11:38:02;;;;;;;8.67;3.27;;;26.50;17.00;;;;;;5068842;28;46923;-65
2022/07/28 11:40:48;;;;;;;4.40;2.80;;;26.50;16.30;;;;;;5069212;28;47922;-65
2022/07/28 11:43:22;;;;;;;7.60;2.67;;;26.40;17.10;;;;;;5061240;27;46689;-64
2022/07/28 11:46:05;;;;;;;5.30;2.30;;;26.50;16.50;;;;;;5067844;28;45886;-65
2022/07/28 11:48:31;;;;;;;5.77;2.93;;;26.60;16.60;;;;;;5065744;28;46492;-65
2022/07/28 11:51:03;;;;;;;8.00;3.20;;;26.60;16.50;;;;;;5066240;28;46803;-64
2022/07/28 11:53:47;;;;;;;11.23;3.20;;;26.80;16.50;;;;;;5067909;28;46470;-65
2022/07/28 11:56:15;;;;;;;5.37;3.00;;;27.00;15.90;;;;;;5068676;28;46505;-65
2022/07/28 11:58:42;;;;;;;6.57;3.20;;;26.90;15.70;;;;;;5067744;28;46452;-65
2022/07/28 12:01:13;;;;;;;9.20;3.40;;;26.80;15.70;;;;;;5068085;28;47079;-65
2022/07/28 12:03:41;;;;;;;8.80;2.70;;;26.90;15.70;;;;;;5067170;28;46399;-65
2022/07/28 12:06:08;;;;;;;5.40;2.57;;;26.90;15.00;;;;;;5067817;28;46499;-65
2022/07/28 12:08:58;;;;;;;5.70;2.73;;;26.80;15.00;;;;;;5066160;28;46885;-65
2022/07/28 12:11:25;;;;;;;5.90;2.80;;;26.80;13.90;;;;;;5076231;27;47149;-65
2022/07/28 12:13:59;;;;;;;5.63;2.80;;;26.80;14.70;;;;;;5075529;28;46449;-65
2022/07/28 12:16:29;;;;;;;4.40;2.67;;;26.90;16.20;;;;;;5077202;28;46431;-66
2022/07/28 12:18:54;;;;;;;6.30;3.13;;;26.80;14.60;;;;;;5069540;28;46357;-66
2022/07/28 12:21:39;;;;;;;7.47;3.20;;;27.10;14.10;;;;;;5071534;28;46029;-65
2022/07/28 12:24:07;;;;;;;6.93;3.27;;;27.10;15.00;;;;;;5071581;28;46357;-66
2022/07/28 12:26:34;;;;;;;15.30;3.30;;;27.20;15.60;;;;;;5066340;28;46778;-63
2022/07/28 12:29:00;;;;;;;6.73;2.60;;;27.20;14.70;;;;;;5068702;28;46462;-64
2022/07/28 12:31:29;;;;;;;7.87;2.53;;;27.40;14.00;;;;;;5068008;28;46468;-66
2022/07/28 12:33:55;;;;;;;8.83;3.20;;;27.30;14.80;;;;;;5067080;28;46509;-66
2022/07/28 12:36:23;;;;;;;8.50;3.60;;;27.40;14.60;;;;;;5068116;28;46649;-65
2022/07/28 12:38:52;;;;;;;7.13;2.87;;;27.40;14.20;;;;;;5067026;28;46894;-65
2022/07/28 12:41:18;;;;;;;4.50;2.97;;;27.30;13.60;;;;;;5065153;28;47097;-66
2022/07/28 12:43:51;;;;;;;5.13;2.87;;;27.30;14.50;;;;;;5066143;28;46492;-65
2022/07/28 12:46:25;;;;;;;5.63;2.93;;;27.30;13.90;;;;;;5066374;28;46414;-67
2022/07/28 12:48:54;;;;;;;4.40;2.53;;;27.20;13.90;;;;;;5067723;28;46354;-66